Time;durP1;ratioP1;P1;durP2;ratioP2;P2;SDS_P1;SDS_P2;PMS_P1;PMS_P2;Temp;Humidity;BMP_temperature;BMP_pressure;BME280_temperature;BME280_humidity;BME280_pressure;Samples;Min_cycle;Max_cycle;Signal;HPM_P1;HPM_P2
2023/03/03 00:00:12;;;;;;;;;;;4.80;99.90;;;;;;5035433;28;19920;-60
2023/03/03 00:02:38;;;;;;;;;;;4.80;99.90;;;;;;5036792;28;19982;-60
2023/03/03 00:05:03;;;;;;;;;;;4.80;99.90;;;;;;5041038;28;19913;-61
2023/03/03 00:07:29;;;;;;;;;;;4.70;99.90;;;;;;5045835;28;20015;-61
2023/03/03 00:09:54;;;;;;;;;;;4.70;99.90;;;;;;5036036;28;19913;-60
2023/03/03 00:12:20;;;;;;;;;;;4.70;99.90;;;;;;5031486;28;19959;-61
2023/03/03 00:14:45;;;;;;;;;;;4.70;99.90;;;;;;5035136;28;19913;-61
2023/03/03 00:17:19;;;;;;;;;;;4.70;99.90;;;;;;5031484;28;19921;-60
2023/03/03 00:19:46;;;;;;;;;;;4.60;99.90;;;;;;5038716;28;19966;-61
2023/03/03 00:22:30;;;;;;;;;;;4.70;99.90;;;;;;5043517;28;19917;-60
2023/03/03 00:25:25;;;;;;;;;;;4.70;99.90;;;;;;5035531;28;19913;-60
2023/03/03 00:27:51;;;;;;;;;;;4.60;99.90;;;;;;5019325;28;19924;-60
2023/03/03 00:30:21;;;;;;;;;;;4.70;99.90;;;;;;5041026;28;19913;-60
2023/03/03 00:32:49;;;;;;;;;;;4.70;99.90;;;;;;5026574;28;19913;-60
2023/03/03 00:35:21;;;;;;;;;;;4.70;99.90;;;;;;5037830;28;19920;-60
2023/03/03 00:37:50;;;;;;;;;;;4.60;99.90;;;;;;5030979;28;19960;-60
2023/03/03 00:40:23;;;;;;;;;;;4.60;99.90;;;;;;5037515;28;19917;-60
2023/03/03 00:42:50;;;;;;;;;;;4.60;99.90;;;;;;5032510;28;20357;-60
2023/03/03 00:45:21;;;;;;;;;;;4.50;99.90;;;;;;5033240;28;19939;-60
2023/03/03 00:47:47;;;;;;;;;;;4.50;99.90;;;;;;5034239;28;20427;-61
2023/03/03 00:50:32;;;;;;;;;;;4.50;99.90;;;;;;5033839;28;19913;-61
2023/03/03 00:53:00;;;;;;;;;;;4.40;99.90;;;;;;5035559;28;19917;-60
2023/03/03 00:55:26;;;;;;;;;;;4.30;99.90;;;;;;5035719;28;20059;-60
2023/03/03 00:57:51;;;;;;;;;;;4.20;99.90;;;;;;5034019;28;19929;-60
2023/03/03 01:00:17;;;;;;;;;;;4.00;99.90;;;;;;5031403;28;19913;-60
2023/03/03 01:02:45;;;;;;;;;;;3.90;99.90;;;;;;5030221;28;19913;-60
2023/03/03 01:05:15;;;;;;;;;;;3.80;99.90;;;;;;5040127;28;19959;-61
2023/03/03 01:07:41;;;;;;;;;;;3.70;99.90;;;;;;5041133;28;20377;-60
2023/03/03 01:10:06;;;;;;;;;;;3.60;99.90;;;;;;5034814;28;19920;-60
2023/03/03 01:12:32;;;;;;;;;;;3.50;99.90;;;;;;5030138;28;20428;-61
2023/03/03 01:14:57;;;;;;;;;;;3.50;99.90;;;;;;5035239;28;19927;-60
2023/03/03 01:17:23;;;;;;;;;;;3.50;99.90;;;;;;5031528;28;20385;-60
2023/03/03 01:19:49;;;;;;;;;;;3.50;99.90;;;;;;5036681;28;19936;-60
2023/03/03 01:22:14;;;;;;;;;;;3.40;99.90;;;;;;5039845;28;20388;-61
2023/03/03 01:24:40;;;;;;;;;;;3.30;99.90;;;;;;5036775;28;20378;-60
2023/03/03 01:27:05;;;;;;;;;;;3.30;99.90;;;;;;5032715;28;20384;-61
2023/03/03 01:29:31;;;;;;;;;;;3.20;99.90;;;;;;5039109;28;19921;-60
2023/03/03 01:31:56;;;;;;;;;;;3.10;99.90;;;;;;5040166;28;19920;-60
2023/03/03 01:34:22;;;;;;;;;;;2.90;99.90;;;;;;5029673;28;19913;-60
2023/03/03 01:36:47;;;;;;;;;;;2.90;99.90;;;;;;5036866;28;19921;-61
2023/03/03 01:39:13;;;;;;;;;;;2.80;99.90;;;;;;5039443;28;19921;-61
2023/03/03 01:41:38;;;;;;;;;;;2.80;99.90;;;;;;5038215;28;20388;-60
2023/03/03 01:44:04;;;;;;;;;;;2.70;99.90;;;;;;5036888;28;19955;-60
2023/03/03 01:46:32;;;;;;;;;;;2.70;99.90;;;;;;5040123;28;19920;-60
2023/03/03 01:49:02;;;;;;;;;;;2.60;99.90;;;;;;5022087;28;19940;-60
2023/03/03 01:51:37;;;;;;;;;;;2.50;99.90;;;;;;5031029;28;20369;-60
2023/03/03 01:54:05;;;;;;;;;;;2.30;99.90;;;;;;5036917;28;20276;-61
2023/03/03 01:56:31;;;;;;;;;;;2.30;99.90;;;;;;5032530;28;20004;-59
2023/03/03 01:58:58;;;;;;;;;;;2.20;99.90;;;;;;5028628;28;20056;-60
2023/03/03 02:01:25;;;;;;;;;;;2.30;99.90;;;;;;5029734;28;19920;-61
2023/03/03 02:03:52;;;;;;;;;;;2.20;99.90;;;;;;5033437;28;19913;-61
2023/03/03 02:06:19;;;;;;;;;;;2.20;99.90;;;;;;5031688;28;19922;-61
2023/03/03 02:08:47;;;;;;;;;;;2.20;99.90;;;;;;5027528;28;19979;-60
2023/03/03 02:11:13;;;;;;;;;;;2.30;99.90;;;;;;5031052;28;19921;-60
2023/03/03 02:13:39;;;;;;;;;;;2.30;99.90;;;;;;5033669;28;19913;-60
2023/03/03 02:16:05;;;;;;;;;;;2.30;99.90;;;;;;5032342;28;19913;-61
2023/03/03 02:18:30;;;;;;;;;;;2.30;99.90;;;;;;5029666;28;19967;-61
2023/03/03 02:21:05;;;;;;;;;;;2.40;99.90;;;;;;5036016;28;20329;-61
2023/03/03 02:23:30;;;;;;;;;;;2.40;99.90;;;;;;5031145;28;19913;-60
2023/03/03 02:25:56;;;;;;;;;;;2.50;99.90;;;;;;5023095;28;19919;-59
2023/03/03 02:28:28;;;;;;;;;;;2.50;99.90;;;;;;5036249;28;19917;-60
2023/03/03 02:30:55;;;;;;;;;;;2.50;99.90;;;;;;5035254;28;19913;-61
2023/03/03 02:33:21;;;;;;;;;;;2.50;99.90;;;;;;5033800;28;20068;-61
2023/03/03 02:35:47;;;;;;;;;;;2.40;99.90;;;;;;5033611;28;20035;-60
2023/03/03 02:38:31;;;;;;;;;;;2.30;99.90;;;;;;5038154;28;20012;-60
2023/03/03 02:41:00;;;;;;;;;;;2.10;99.90;;;;;;5023340;28;19920;-59
2023/03/03 02:43:28;;;;;;;;;;;2.00;99.90;;;;;;5035650;28;20424;-60
2023/03/03 02:45:54;;;;;;;;;;;2.00;99.90;;;;;;5031859;28;19914;-60
2023/03/03 02:48:19;;;;;;;;;;;1.80;99.90;;;;;;5035681;28;20440;-60
2023/03/03 02:50:45;;;;;;;;;;;1.80;99.90;;;;;;5039268;28;19915;-60
2023/03/03 02:53:10;;;;;;;;;;;1.60;99.90;;;;;;5038469;28;20381;-60
2023/03/03 02:55:36;;;;;;;;;;;1.80;99.90;;;;;;5035193;28;20007;-60
2023/03/03 02:58:01;;;;;;;;;;;2.00;99.90;;;;;;5036549;28;20011;-59
2023/03/03 03:00:27;;;;;;;;;;;2.10;99.90;;;;;;5035180;28;19948;-60
2023/03/03 03:02:52;;;;;;;;;;;2.00;99.90;;;;;;5035630;28;19914;-60
2023/03/03 03:05:18;;;;;;;;;;;2.00;99.90;;;;;;5030750;28;19917;-60
2023/03/03 03:07:43;;;;;;;;;;;2.10;99.90;;;;;;5034153;28;19913;-60
2023/03/03 03:10:10;;;;;;;;;;;2.00;99.90;;;;;;5030332;28;19924;-61
2023/03/03 03:12:36;;;;;;;;;;;1.90;99.90;;;;;;5034391;28;19966;-60
2023/03/03 03:15:01;;;;;;;;;;;1.80;99.90;;;;;;5033534;28;20012;-60
2023/03/03 03:17:27;;;;;;;;;;;1.60;99.90;;;;;;5034586;28;20027;-59
2023/03/03 03:19:52;;;;;;;;;;;1.50;99.90;;;;;;5030069;28;20404;-60
2023/03/03 03:22:18;;;;;;;;;;;1.60;99.90;;;;;;5038912;28;19913;-59
2023/03/03 03:24:43;;;;;;;;;;;1.60;99.90;;;;;;5033203;28;20300;-59
2023/03/03 03:27:09;;;;;;;;;;;1.60;99.90;;;;;;5033071;28;19940;-60
2023/03/03 03:29:34;;;;;;;;;;;1.50;99.90;;;;;;5038394;28;20343;-60
2023/03/03 03:32:00;;;;;;;;;;;1.40;99.90;;;;;;5042298;28;20303;-60
2023/03/03 03:34:26;;;;;;;;;;;1.40;99.90;;;;;;5036989;28;19913;-60
2023/03/03 03:36:51;;;;;;;;;;;1.40;99.90;;;;;;5035249;28;19964;-60
2023/03/03 03:39:17;;;;;;;;;;;1.30;99.90;;;;;;5040489;28;20218;-61
2023/03/03 03:41:42;;;;;;;;;;;1.30;99.90;;;;;;5033958;28;19917;-60
2023/03/03 03:44:08;;;;;;;;;;;1.20;99.90;;;;;;5036010;28;19913;-61
2023/03/03 03:46:33;;;;;;;;;;;1.40;99.90;;;;;;5041842;28;20011;-60
2023/03/03 03:48:59;;;;;;;;;;;1.60;99.90;;;;;;5035258;28;19913;-60
2023/03/03 03:51:24;;;;;;;;;;;1.80;99.90;;;;;;5032925;28;19980;-60
2023/03/03 03:53:50;;;;;;;;;;;1.80;99.90;;;;;;5037843;28;19913;-59
2023/03/03 03:56:15;;;;;;;;;;;1.90;99.90;;;;;;5039358;28;20000;-59
2023/03/03 03:58:41;;;;;;;;;;;2.00;99.90;;;;;;5038600;28;19921;-60
2023/03/03 04:01:06;;;;;;;;;;;1.90;99.90;;;;;;5036491;28;19995;-59
2023/03/03 04:03:32;;;;;;;;;;;2.00;99.90;;;;;;5032210;28;19952;-59
2023/03/03 04:05:58;;;;;;;;;;;2.00;99.90;;;;;;5040821;28;20952;-60
2023/03/03 04:08:23;;;;;;;;;;;2.00;99.90;;;;;;5039638;28;19913;-60
2023/03/03 04:10:49;;;;;;;;;;;2.00;99.90;;;;;;5035721;28;20266;-59
2023/03/03 04:13:14;;;;;;;;;;;2.10;99.90;;;;;;5039091;28;20399;-60
2023/03/03 04:15:40;;;;;;;;;;;2.00;99.90;;;;;;5039275;28;19917;-60
2023/03/03 04:18:06;;;;;;;;;;;2.00;99.90;;;;;;5037618;28;19921;-60
2023/03/03 04:20:31;;;;;;;;;;;2.00;99.90;;;;;;5038261;28;19987;-60
2023/03/03 04:22:57;;;;;;;;;;;1.90;99.90;;;;;;5036072;28;20277;-59
2023/03/03 04:25:23;;;;;;;;;;;1.90;99.90;;;;;;5040039;28;20327;-60
2023/03/03 04:27:48;;;;;;;;;;;1.80;99.90;;;;;;5042451;28;20439;-59
2023/03/03 04:30:14;;;;;;;;;;;1.60;99.90;;;;;;5046018;28;19913;-60
2023/03/03 04:32:40;;;;;;;;;;;1.60;99.90;;;;;;5042296;28;19972;-60
2023/03/03 04:35:06;;;;;;;;;;;1.70;99.90;;;;;;5038761;28;19913;-59
2023/03/03 04:37:32;;;;;;;;;;;1.70;99.90;;;;;;5032847;28;19970;-60
2023/03/03 04:39:57;;;;;;;;;;;1.80;99.90;;;;;;5039994;28;20489;-60
2023/03/03 04:42:23;;;;;;;;;;;1.80;99.90;;;;;;5045832;23;19913;-60
2023/03/03 04:44:48;;;;;;;;;;;1.90;99.90;;;;;;5038498;28;19960;-60
2023/03/03 04:47:14;;;;;;;;;;;2.00;99.90;;;;;;5044344;28;19935;-61
2023/03/03 04:49:40;;;;;;;;;;;2.00;99.90;;;;;;5035477;28;20392;-60
2023/03/03 04:52:05;;;;;;;;;;;1.90;99.90;;;;;;5044220;28;19965;-61
2023/03/03 04:54:31;;;;;;;;;;;2.00;99.90;;;;;;5038204;28;20614;-61
2023/03/03 04:56:57;;;;;;;;;;;2.00;99.90;;;;;;5038947;28;19912;-61
2023/03/03 04:59:22;;;;;;;;;;;2.00;99.90;;;;;;5041587;28;19921;-60
2023/03/03 05:01:49;;;;;;;;;;;2.00;99.90;;;;;;5033481;28;19967;-61
2023/03/03 05:04:15;;;;;;;;;;;2.10;99.90;;;;;;5047442;28;20012;-61
2023/03/03 05:06:40;;;;;;;;;;;2.10;99.90;;;;;;5046076;28;19980;-59
2023/03/03 05:09:06;;;;;;;;;;;2.00;99.90;;;;;;5040196;28;19920;-60
2023/03/03 05:11:32;;;;;;;;;;;2.00;99.90;;;;;;5030811;28;19932;-60
2023/03/03 05:13:57;;;;;;;;;;;1.90;99.90;;;;;;5044864;28;20411;-61
2023/03/03 05:16:23;;;;;;;;;;;1.90;99.90;;;;;;5046173;28;19920;-61
2023/03/03 05:18:48;;;;;;;;;;;1.90;99.90;;;;;;5035691;28;19921;-61
2023/03/03 05:21:14;;;;;;;;;;;1.90;99.90;;;;;;5044456;28;19913;-61
2023/03/03 05:23:39;;;;;;;;;;;2.00;99.90;;;;;;5034073;28;20011;-61
2023/03/03 05:26:05;;;;;;;;;;;1.90;99.90;;;;;;5041171;28;19975;-61
2023/03/03 05:28:31;;;;;;;;;;;2.00;99.90;;;;;;5030851;28;19920;-60
2023/03/03 05:30:56;;;;;;;;;;;2.10;99.90;;;;;;5032832;28;19955;-60
2023/03/03 05:33:22;;;;;;;;;;;2.10;99.90;;;;;;5044108;28;19913;-61
2023/03/03 05:35:52;;;;;;;;;;;2.10;99.90;;;;;;5031497;28;20000;-61
2023/03/03 05:38:17;;;;;;;;;;;2.10;99.90;;;;;;5038064;28;19920;-61
2023/03/03 05:40:43;;;;;;;;;;;2.10;99.90;;;;;;5028682;28;19919;-61
2023/03/03 05:43:08;;;;;;;;;;;2.10;99.90;;;;;;5036578;28;20380;-60
2023/03/03 05:45:34;;;;;;;;;;;2.10;99.90;;;;;;5050636;28;19917;-61
2023/03/03 05:48:00;;;;;;;;;;;2.10;99.90;;;;;;5033651;28;19960;-61
2023/03/03 05:50:25;;;;;;;;;;;2.20;99.90;;;;;;5040766;28;19924;-61
2023/03/03 05:52:51;;;;;;;;;;;2.20;99.90;;;;;;5031014;28;19919;-61
2023/03/03 05:55:17;;;;;;;;;;;2.30;99.90;;;;;;5034922;28;19913;-61
2023/03/03 05:57:43;;;;;;;;;;;2.20;99.90;;;;;;5028574;28;19921;-61
2023/03/03 06:00:09;;;;;;;;;;;2.20;99.90;;;;;;5031089;28;20427;-61
2023/03/03 06:02:35;;;;;;;;;;;2.20;99.90;;;;;;5034431;28;19913;-61
2023/03/03 06:05:00;;;;;;;;;;;2.10;99.90;;;;;;5029741;28;19936;-61
2023/03/03 06:07:26;;;;;;;;;;;2.00;99.90;;;;;;5033671;28;19917;-61
2023/03/03 06:09:51;;;;;;;;;;;2.00;99.90;;;;;;5034247;28;20000;-61
2023/03/03 06:12:17;;;;;;;;;;;2.00;99.90;;;;;;5037120;28;19913;-61
2023/03/03 06:14:42;;;;;;;;;;;1.90;99.90;;;;;;5030029;28;20285;-59
2023/03/03 06:17:09;;;;;;;;;;;2.00;99.90;;;;;;5061439;28;19948;-62
2023/03/03 06:19:35;;;;;;;;;;;2.00;99.90;;;;;;5030548;28;19924;-61
2023/03/03 06:22:00;;;;;;;;;;;2.10;99.90;;;;;;5027550;28;20285;-61
2023/03/03 06:24:29;;;;;;;;;;;2.00;99.90;;;;;;5037677;28;19916;-61
2023/03/03 06:26:55;;;;;;;;;;;2.00;99.90;;;;;;5028900;28;19914;-62
2023/03/03 06:29:20;;;;;;;;;;;2.00;99.90;;;;;;5035238;28;19920;-61
2023/03/03 06:31:46;;;;;;;;;;;2.00;99.90;;;;;;5028864;28;20004;-62
2023/03/03 06:34:11;;;;;;;;;;;1.90;99.90;;;;;;5032615;28;19914;-62
2023/03/03 06:36:37;;;;;;;;;;;2.00;99.90;;;;;;5037450;28;19947;-62
2023/03/03 06:39:02;;;;;;;;;;;2.00;99.90;;;;;;5030093;28;20457;-61
2023/03/03 06:41:28;;;;;;;;;;;2.10;99.90;;;;;;5027107;28;19913;-61
2023/03/03 06:43:54;;;;;;;;;;;2.10;99.90;;;;;;5028241;28;19940;-61
2023/03/03 06:46:19;;;;;;;;;;;2.10;99.90;;;;;;5037653;28;20008;-62
2023/03/03 06:48:45;;;;;;;;;;;2.20;99.90;;;;;;5038578;28;20451;-61
2023/03/03 06:51:30;;;;;;;;;;;2.20;99.90;;;;;;5040219;28;19913;-62
2023/03/03 06:53:57;;;;;;;;;;;2.30;99.90;;;;;;5030024;28;19912;-62
2023/03/03 06:56:23;;;;;;;;;;;2.40;99.90;;;;;;5029907;28;19913;-62
2023/03/03 06:58:51;;;;;;;;;;;2.40;99.90;;;;;;5036237;28;20003;-62
2023/03/03 07:01:16;;;;;;;;;;;2.40;99.90;;;;;;5030925;28;19917;-62
2023/03/03 07:03:42;;;;;;;;;;;2.40;99.90;;;;;;5036002;28;20078;-62
2023/03/03 07:06:16;;;;;;;;;;;2.40;99.90;;;;;;5040399;28;20344;-62
2023/03/03 07:08:41;;;;;;;;;;;2.50;99.90;;;;;;5031555;28;20450;-61
2023/03/03 07:11:11;;;;;;;;;;;2.40;99.90;;;;;;5032978;28;20045;-62
2023/03/03 07:13:38;;;;;;;;;;;2.50;99.90;;;;;;5029586;28;19944;-62
2023/03/03 07:16:08;;;;;;;;;;;2.40;99.90;;;;;;5032666;28;19913;-62
2023/03/03 07:18:33;;;;;;;;;;;2.40;99.90;;;;;;5032997;28;19921;-62
2023/03/03 07:21:01;;;;;;;;;;;2.30;99.90;;;;;;5037423;28;20011;-62
2023/03/03 07:23:30;;;;;;;;;;;2.30;99.90;;;;;;5033967;28;20757;-62
2023/03/03 07:25:56;;;;;;;;;;;2.30;99.90;;;;;;5029563;28;19917;-58
2023/03/03 07:28:22;;;;;;;;;;;2.60;99.90;;;;;;5027221;28;19920;-62
2023/03/03 07:30:48;;;;;;;;;;;2.70;99.90;;;;;;5032842;28;19959;-62
2023/03/03 07:33:18;;;;;;;;;;;2.80;99.90;;;;;;5027505;28;19982;-62
2023/03/03 07:35:44;;;;;;;;;;;2.90;99.90;;;;;;5026560;28;20564;-63
2023/03/03 07:38:15;;;;;;;;;;;3.10;99.90;;;;;;5031255;28;20364;-63
2023/03/03 07:40:44;;;;;;;;;;;3.20;99.90;;;;;;5024200;28;20011;-61
2023/03/03 07:43:22;;;;;;;;;;;3.40;99.90;;;;;;5025135;28;19917;-61
2023/03/03 07:45:47;;;;;;;;;;;3.50;99.90;;;;;;5030382;28;20014;-61
2023/03/03 07:48:22;;;;;;;;;;;3.60;99.90;;;;;;5027604;28;19917;-61
2023/03/03 07:50:48;;;;;;;;;;;3.70;99.90;;;;;;5029578;28;19913;-62
2023/03/03 07:53:21;;;;;;;;;;;3.80;99.90;;;;;;5020050;28;20392;-64
2023/03/03 07:55:47;;;;;;;;;;;3.80;99.90;;;;;;5026790;28;19921;-61
2023/03/03 07:58:13;;;;;;;;;;;4.00;99.90;;;;;;5027046;28;19921;-63
2023/03/03 08:00:58;;;;;;;;;;;4.10;99.90;;;;;;5029469;28;19920;-61
2023/03/03 08:03:23;;;;;;;;;;;4.30;99.90;;;;;;5030812;28;19940;-63
2023/03/03 08:05:50;;;;;;;;;;;4.40;99.90;;;;;;5026329;28;20357;-63
2023/03/03 08:08:25;;;;;;;;;;;4.50;99.90;;;;;;5057933;28;19952;-61
2023/03/03 08:10:54;;;;;;;;;;;4.50;99.90;;;;;;5026147;28;19914;-62
2023/03/03 08:13:37;;;;;;;;;;;4.60;99.90;;;;;;5027199;28;19959;-62
2023/03/03 08:16:08;;;;;;;;;;;4.70;99.90;;;;;;5030332;28;19949;-63
2023/03/03 08:18:37;;;;;;;;;;;4.80;99.90;;;;;;5031102;28;19964;-62
2023/03/03 08:21:21;;;;;;;;;;;5.00;99.90;;;;;;5030012;28;20326;-62
2023/03/03 08:23:52;;;;;;;;;;;5.00;99.90;;;;;;5026325;28;19913;-62
2023/03/03 08:26:18;;;;;;;;;;;5.20;99.90;;;;;;5029168;28;20365;-63
2023/03/03 08:28:44;;;;;;;;;;;5.30;99.90;;;;;;5029329;28;19943;-63
2023/03/03 08:31:09;;;;;;;;;;;5.40;99.90;;;;;;5030594;28;19948;-63
2023/03/03 08:33:35;;;;;;;;;;;5.50;99.90;;;;;;5033744;28;21123;-63
2023/03/03 08:36:01;;;;;;;;;;;5.60;99.90;;;;;;5032613;28;19963;-63
2023/03/03 08:38:26;;;;;;;;;;;5.60;99.90;;;;;;5037848;28;20082;-62
2023/03/03 08:40:52;;;;;;;;;;;5.70;99.90;;;;;;5030887;28;19932;-63
2023/03/03 08:43:20;;;;;;;;;;;5.80;99.90;;;;;;5035294;28;20000;-62
2023/03/03 08:45:46;;;;;;;;;;;5.80;99.90;;;;;;5033376;28;19913;-62
2023/03/03 08:48:12;;;;;;;;;;;5.80;99.90;;;;;;5037015;28;19920;-63
2023/03/03 08:50:38;;;;;;;;;;;5.90;99.90;;;;;;5039320;28;19913;-62
2023/03/03 08:53:04;;;;;;;;;;;5.80;99.90;;;;;;5030423;28;19999;-63
2023/03/03 08:55:29;;;;;;;;;;;5.90;99.90;;;;;;5039432;28;19960;-63
2023/03/03 08:57:55;;;;;;;;;;;5.90;99.90;;;;;;5029264;28;20483;-63
2023/03/03 09:00:21;;;;;;;;;;;6.00;99.90;;;;;;5035075;28;20428;-63
2023/03/03 09:02:47;;;;;;;;;;;6.00;99.90;;;;;;5043715;28;20007;-62
2023/03/03 09:05:13;;;;;;;;;;;6.10;99.90;;;;;;5033396;28;20016;-64
2023/03/03 09:07:41;;;;;;;;;;;6.20;99.90;;;;;;5030872;28;19913;-64
2023/03/03 09:10:06;;;;;;;;;;;6.20;99.90;;;;;;5025621;28;19913;-63
2023/03/03 09:12:34;;;;;;;;;;;6.30;99.90;;;;;;5030117;28;19920;-62
2023/03/03 09:15:02;;;;;;;;;;;6.40;99.90;;;;;;5029393;28;21024;-63
2023/03/03 09:17:30;;;;;;;;;;;6.50;99.90;;;;;;5035750;28;20016;-63
2023/03/03 09:19:58;;;;;;;;;;;6.60;99.90;;;;;;5051495;22;19924;-61
2023/03/03 09:22:24;;;;;;;;;;;6.60;99.90;;;;;;5045487;28;19921;-61
2023/03/03 09:24:52;;;;;;;;;;;6.70;99.90;;;;;;5045129;28;19966;-61
2023/03/03 09:27:22;;;;;;;;;;;6.80;99.90;;;;;;5039541;28;20387;-61
2023/03/03 09:29:48;;;;;;;;;;;6.70;99.90;;;;;;5044096;28;20012;-61
2023/03/03 09:32:25;;;;;;;;;;;6.70;99.90;;;;;;5041061;28;20008;-60
2023/03/03 09:34:51;;;;;;;;;;;6.70;99.90;;;;;;5039965;28;19913;-61
2023/03/03 09:37:23;;;;;;;;;;;6.90;99.90;;;;;;5042024;28;19924;-62
2023/03/03 09:39:53;;;;;;;;;;;7.00;99.90;;;;;;5035193;28;19991;-62
2023/03/03 09:42:21;;;;;;;;;;;7.20;99.90;;;;;;5042334;28;19921;-61
2023/03/03 09:45:10;;;;;;;;;;;7.20;99.90;;;;;;5041350;28;19920;-62
2023/03/03 09:47:51;;;;;;;;;;;7.30;99.90;;;;;;5042021;28;19913;-62
2023/03/03 09:50:19;;;;;;;;;;;7.40;99.90;;;;;;5044430;28;19913;-61
2023/03/03 09:52:47;;;;;;;;;;;7.30;99.90;;;;;;5039860;28;19919;-62
2023/03/03 09:55:15;;;;;;;;;;;7.40;99.90;;;;;;5046092;28;19921;-61
2023/03/03 09:57:59;;;;;;;;;;;7.60;99.90;;;;;;5034018;28;19924;-62
2023/03/03 10:00:37;;;;;;;;;;;7.60;99.90;;;;;;5042227;28;19956;-61
2023/03/03 10:03:11;;;;;;;;;;;7.80;99.90;;;;;;5042709;28;19913;-62
2023/03/03 10:05:51;;;;;;;;;;;8.20;99.90;;;;;;5047057;28;19913;-62
2023/03/03 10:08:27;;;;;;;;;;;8.30;99.90;;;;;;5044164;28;19920;-62
2023/03/03 10:10:59;;;;;;;;;;;8.30;99.90;;;;;;5041749;28;19917;-62
2023/03/03 10:13:30;;;;;;;;;;;8.40;99.90;;;;;;5042941;28;19913;-62
2023/03/03 10:15:55;;;;;;;;;;;8.60;99.90;;;;;;5036295;28;20581;-62
2023/03/03 10:18:53;;;;;;;;;;;8.60;99.90;;;;;;5043701;28;19928;-62
2023/03/03 10:21:19;;;;;;;;;;;8.70;99.90;;;;;;5033009;28;19921;-62
2023/03/03 10:23:51;;;;;;;;;;;8.80;99.90;;;;;;5039766;28;19920;-61
2023/03/03 10:26:16;;;;;;;;;;;8.90;99.90;;;;;;5042933;28;19921;-61
2023/03/03 10:28:42;;;;;;;;;;;8.90;99.90;;;;;;5034680;28;19924;-62
2023/03/03 10:31:25;;;;;;;;;;;8.90;99.90;;;;;;5037972;28;20038;-62
2023/03/03 10:34:10;;;;;;;;;;;8.80;99.90;;;;;;5040161;28;19916;-62
2023/03/03 10:36:35;;;;;;;;;;;8.90;99.90;;;;;;5037291;28;19913;-62
2023/03/03 10:39:04;;;;;;;;;;;9.10;99.90;;;;;;5036541;28;19966;-63
2023/03/03 10:41:37;;;;;;;;;;;9.20;99.90;;;;;;5038353;28;19920;-62
2023/03/03 10:44:21;;;;;;;;;;;9.30;99.90;;;;;;5031090;28;20417;-62
2023/03/03 10:47:05;;;;;;;;;;;9.40;99.90;;;;;;5036837;28;19913;-62
2023/03/03 10:49:38;;;;;;;;;;;9.70;99.90;;;;;;5035958;28;19913;-61
2023/03/03 10:52:22;;;;;;;;;;;9.90;99.90;;;;;;5033219;28;20281;-61
2023/03/03 10:54:57;;;;;;;;;;;10.00;99.90;;;;;;5040041;28;20295;-61
2023/03/03 10:57:25;;;;;;;;;;;10.00;99.90;;;;;;5036809;28;19917;-61
2023/03/03 10:59:56;;;;;;;;;;;10.00;99.90;;;;;;5038413;28;19959;-62
2023/03/03 11:02:25;;;;;;;;;;;10.10;99.90;;;;;;5034548;28;19970;-62
2023/03/03 11:04:55;;;;;;;;;;;10.20;99.90;;;;;;5037325;28;19921;-61
2023/03/03 11:07:26;;;;;;;;;;;10.00;99.90;;;;;;5043160;28;19912;-61
2023/03/03 11:10:02;;;;;;;;;;;9.90;99.90;;;;;;5038220;28;19912;-61
2023/03/03 11:12:30;;;;;;;;;;;9.50;99.90;;;;;;5037611;28;20288;-61
2023/03/03 11:15:17;;;;;;;;;;;9.30;99.90;;;;;;5041699;28;20327;-61
2023/03/03 11:17:55;;;;;;;;;;;9.10;99.90;;;;;;5043188;28;19921;-61
2023/03/03 11:20:34;;;;;;;;;;;9.10;99.90;;;;;;5037904;28;19928;-62
2023/03/03 11:23:09;;;;;;;;;;;9.10;99.90;;;;;;5032498;28;19917;-61
2023/03/03 11:25:43;;;;;;;;;;;9.10;99.90;;;;;;5039487;28;19913;-61
2023/03/03 11:28:18;;;;;;;;;;;9.00;99.90;;;;;;5035352;28;20545;-61
2023/03/03 11:30:44;;;;;;;;;;;9.30;99.90;;;;;;5033549;28;19920;-60
2023/03/03 11:33:21;;;;;;;;;;;9.60;99.90;;;;;;5037292;28;19913;-61
2023/03/03 11:35:49;;;;;;;;;;;9.40;99.90;;;;;;5038512;28;19920;-61
2023/03/03 11:38:35;;;;;;;;;;;9.50;99.90;;;;;;5033678;28;19944;-60
2023/03/03 11:41:03;;;;;;;;;;;9.70;99.90;;;;;;5034030;28;19917;-59
2023/03/03 11:43:38;;;;;;;;;;;9.60;99.90;;;;;;5034037;28;19913;-61
2023/03/03 11:46:13;;;;;;;;;;;9.60;99.90;;;;;;5039311;28;20060;-61
2023/03/03 11:48:42;;;;;;;;;;;9.50;99.90;;;;;;5041811;28;20266;-61
2023/03/03 11:51:23;;;;;;;;;;;9.50;99.90;;;;;;5059868;28;19960;-62
2023/03/03 11:54:04;;;;;;;;;;;9.60;99.90;;;;;;5039937;28;20303;-62
2023/03/03 11:56:46;;;;;;;;;;;9.50;99.90;;;;;;5032966;28;20043;-61
2023/03/03 11:59:11;;;;;;;;;;;9.10;99.90;;;;;;5040443;28;19921;-62
2023/03/03 12:01:43;;;;;;;;;;;8.90;99.90;;;;;;5040599;28;19928;-62
2023/03/03 12:04:13;;;;;;;;;;;8.70;99.90;;;;;;5041614;28;20293;-61
2023/03/03 12:06:41;;;;;;;;;;;8.50;99.90;;;;;;5044118;28;20266;-61
2023/03/03 12:09:22;;;;;;;;;;;8.40;99.90;;;;;;5040905;28;19921;-62
2023/03/03 12:12:11;;;;;;;;;;;8.40;99.90;;;;;;5036904;28;20000;-63
2023/03/03 12:15:00;;;;;;;;;;;8.50;99.90;;;;;;5042254;28;20396;-61
2023/03/03 12:17:38;;;;;;;;;;;8.60;99.90;;;;;;5039255;28;19920;-61
2023/03/03 12:20:13;;;;;;;;;;;8.80;99.90;;;;;;5040461;28;19921;-62
2023/03/03 12:22:44;;;;;;;;;;;8.90;99.90;;;;;;5043140;28;20361;-62
2023/03/03 12:25:12;;;;;;;;;;;9.00;99.90;;;;;;5033357;28;19913;-63
2023/03/03 12:27:49;;;;;;;;;;;8.90;99.90;;;;;;5035799;28;19923;-62
2023/03/03 12:30:32;;;;;;;;;;;8.90;99.90;;;;;;5029790;28;20421;-61
2023/03/03 12:32:59;;;;;;;;;;;8.80;99.90;;;;;;5040017;28;20389;-62
2023/03/03 12:35:43;;;;;;;;;;;8.70;99.90;;;;;;5040598;28;20384;-62
2023/03/03 12:38:09;;;;;;;;;;;8.70;99.90;;;;;;5041387;28;19928;-62
2023/03/03 12:40:40;;;;;;;;;;;8.80;99.90;;;;;;5030989;28;19913;-61
2023/03/03 12:43:14;;;;;;;;;;;9.00;99.90;;;;;;5041137;28;19919;-62
2023/03/03 12:45:39;;;;;;;;;;;9.10;99.90;;;;;;5035421;28;19913;-62
2023/03/03 12:48:14;;;;;;;;;;;9.20;99.90;;;;;;5039806;28;20283;-62
2023/03/03 12:50:50;;;;;;;;;;;9.40;99.90;;;;;;5032758;28;19920;-62
2023/03/03 12:53:34;;;;;;;;;;;9.60;99.90;;;;;;5038289;28;20373;-62
2023/03/03 12:56:02;;;;;;;;;;;9.50;99.90;;;;;;5034869;28;20296;-62
2023/03/03 12:58:28;;;;;;;;;;;9.30;99.90;;;;;;5034143;28;19928;-62
2023/03/03 13:00:57;;;;;;;;;;;9.00;99.90;;;;;;5042129;28;19920;-61
2023/03/03 13:03:34;;;;;;;;;;;8.80;99.90;;;;;;5043038;28;20016;-61
2023/03/03 13:06:12;;;;;;;;;;;8.60;99.90;;;;;;5036670;28;20283;-61
2023/03/03 13:08:43;;;;;;;;;;;8.40;99.90;;;;;;5039611;28;20397;-60
2023/03/03 13:11:15;;;;;;;;;;;8.30;99.90;;;;;;5038048;28;19935;-62
2023/03/03 13:13:46;;;;;;;;;;;8.20;99.90;;;;;;5031513;28;19931;-62
2023/03/03 13:16:14;;;;;;;;;;;8.10;99.90;;;;;;5039990;28;19913;-62
2023/03/03 13:18:53;;;;;;;;;;;8.20;99.90;;;;;;5037153;28;19921;-63
2023/03/03 13:21:39;;;;;;;;;;;8.30;99.90;;;;;;5038264;28;19921;-63
2023/03/03 13:24:14;;;;;;;;;;;8.50;99.90;;;;;;5036821;28;20440;-62
2023/03/03 13:26:42;;;;;;;;;;;8.80;99.90;;;;;;5029851;28;19913;-62
2023/03/03 13:29:29;;;;;;;;;;;8.90;99.90;;;;;;5043645;28;19967;-61
2023/03/03 13:31:55;;;;;;;;;;;9.00;99.90;;;;;;5039950;28;20380;-62
2023/03/03 13:34:36;;;;;;;;;;;8.90;99.90;;;;;;5033617;28;19940;-63
2023/03/03 13:37:14;;;;;;;;;;;8.80;99.90;;;;;;5037193;28;19912;-63
2023/03/03 13:40:00;;;;;;;;;;;8.70;99.90;;;;;;5038475;28;20028;-64
2023/03/03 13:42:31;;;;;;;;;;;8.60;99.90;;;;;;5035014;28;19924;-61
2023/03/03 13:44:57;;;;;;;;;;;8.50;99.90;;;;;;5036854;28;19913;-63
2023/03/03 13:47:28;;;;;;;;;;;8.40;99.90;;;;;;5038258;28;19963;-63
2023/03/03 13:50:12;;;;;;;;;;;8.30;99.90;;;;;;5039432;28;19924;-62
2023/03/03 13:52:44;;;;;;;;;;;8.20;99.90;;;;;;5035046;28;19917;-62
2023/03/03 13:55:16;;;;;;;;;;;8.00;99.90;;;;;;5037511;28;19948;-62
2023/03/03 13:57:42;;;;;;;;;;;8.00;99.90;;;;;;5037351;28;19921;-60
2023/03/03 14:00:26;;;;;;;;;;;8.00;99.90;;;;;;5040569;28;19917;-61
2023/03/03 14:02:52;;;;;;;;;;;8.10;99.90;;;;;;5032505;28;19976;-61
2023/03/03 14:05:53;;;;;;;;;;;8.20;99.90;;;;;;5035435;28;20381;-62
2023/03/03 14:08:33;;;;;;;;;;;8.30;99.90;;;;;;5036161;28;19912;-62
2023/03/03 14:10:58;;;;;;;;;;;8.50;99.90;;;;;;5034576;28;20412;-62
2023/03/03 14:13:28;;;;;;;;;;;8.50;99.90;;;;;;5031955;28;19956;-61
2023/03/03 14:16:13;;;;;;;;;;;8.60;99.90;;;;;;5034260;28;19932;-61
2023/03/03 14:18:51;;;;;;;;;;;8.80;99.90;;;;;;5037457;28;19921;-63
2023/03/03 14:21:23;;;;;;;;;;;8.90;99.90;;;;;;5036313;28;20467;-62
2023/03/03 14:24:07;;;;;;;;;;;9.10;99.90;;;;;;5037360;28;19999;-62
2023/03/03 14:26:44;;;;;;;;;;;9.10;99.90;;;;;;5033193;28;19921;-62
2023/03/03 14:29:15;;;;;;;;;;;9.20;99.90;;;;;;5036752;28;19943;-62
2023/03/03 14:31:42;;;;;;;;;;;9.10;99.90;;;;;;5039640;28;20117;-62
2023/03/03 14:34:10;;;;;;;;;;;9.00;99.90;;;;;;5035714;28;20367;-62
2023/03/03 14:36:40;;;;;;;;;;;8.90;99.90;;;;;;5034344;28;19913;-66
2023/03/03 14:39:24;;;;;;;;;;;8.70;99.90;;;;;;5033240;28;21297;-62
2023/03/03 14:41:52;;;;;;;;;;;8.70;99.90;;;;;;5032702;28;20423;-62